Nagoya, Japan
Current Conditions -  °F | °C
As of 2:00 AM on Saturday 29 Nov 2014 (Local Time) from RJGG Reporting Station
Rain Showers Rain Showers  
Wind Chill: 61°   Ceiling: 5000
Heat Index: 61°   Visibility: 6mi
Dew Point: 57°   Wind: 15mph
Humidity: 88%   Direction: 110°ESE
Pressure: 30.03"   Gusts: NA
Location:  35.15°N, 136.91°E
Report Text: RJGG 281700Z 11013KT 9999 VCSH FEW015 SCT025 BKN050 16/14 Q1017 NOSIG
Loading
Personal Weather Stations






























Interactive Weather Map New forecast layout! Learn more

10-Day Weather Forecast

Advertisements
Track Severe Weather on mobile